Time;durP1;ratioP1;P1;durP2;ratioP2;P2;SDS_P1;SDS_P2;PMS_P1;PMS_P2;Temp;Humidity;BMP_temperature;BMP_pressure;BME280_temperature;BME280_humidity;BME280_pressure;Samples;Min_cycle;Max_cycle;Signal;HPM_P1;HPM_P2
2022/07/14 00:01:37;;;;;;;5.60;2.53;;;;;;;18.38;67.88;100754.44;5123282;28;20500;-65
2022/07/14 00:04:05;;;;;;;10.93;3.50;;;;;;;18.43;67.81;100744.75;5124013;28;20470;-65
2022/07/14 00:06:33;;;;;;;9.87;3.37;;;;;;;18.24;68.43;100743.38;5123072;28;20491;-65
2022/07/14 00:09:01;;;;;;;5.90;3.30;;;;;;;18.36;68.24;100741.06;5123696;28;20457;-64
2022/07/14 00:11:28;;;;;;;7.10;2.57;;;;;;;18.22;68.63;100747.25;5122874;28;20484;-64
2022/07/14 00:13:56;;;;;;;9.23;3.40;;;;;;;18.38;68.39;100743.59;5123421;28;20491;-64
2022/07/14 00:16:22;;;;;;;9.20;3.70;;;;;;;18.57;68.04;100751.25;5122296;28;20945;-64
2022/07/14 00:18:49;;;;;;;9.37;3.20;;;;;;;18.17;69.65;100755.91;5123816;28;20752;-64
2022/07/14 00:21:17;;;;;;;10.00;3.23;;;;;;;18.33;68.89;100751.41;5121617;28;21333;-64
2022/07/14 00:23:47;;;;;;;8.70;3.20;;;;;;;18.28;69.39;100753.81;5123505;28;20442;-64
2022/07/14 00:26:14;;;;;;;9.20;3.40;;;;;;;18.28;68.97;100749.28;5123117;28;20552;-65
2022/07/14 00:28:41;;;;;;;14.10;4.10;;;;;;;18.13;69.99;100760.00;5123074;28;20446;-66
2022/07/14 00:31:08;;;;;;;7.30;2.90;;;;;;;18.20;69.92;100760.13;5122854;28;20505;-66
2022/07/14 00:33:35;;;;;;;15.10;4.27;;;;;;;18.16;70.02;100758.81;5122882;28;20464;-66
2022/07/14 00:36:02;;;;;;;11.40;3.40;;;;;;;18.17;69.89;100746.94;5122179;28;20517;-66
2022/07/14 00:38:29;;;;;;;15.77;4.30;;;;;;;18.00;70.57;100747.06;5122581;28;20568;-66
2022/07/14 00:40:57;;;;;;;12.40;3.47;;;;;;;18.04;70.31;100748.38;5123102;28;20537;-66
2022/07/14 00:43:24;;;;;;;11.10;3.67;;;;;;;17.90;71.23;100735.59;5122632;28;20454;-66
2022/07/14 00:45:50;;;;;;;14.80;3.67;;;;;;;17.87;71.15;100735.97;5121549;28;20474;-66
2022/07/14 00:48:19;;;;;;;8.90;3.47;;;;;;;17.77;71.85;100740.69;5123547;28;20442;-66
2022/07/14 00:50:46;;;;;;;9.90;3.60;;;;;;;17.58;72.37;100747.38;5122465;28;20498;-66
2022/07/14 00:53:13;;;;;;;17.40;3.90;;;;;;;17.60;72.34;100748.03;5122815;28;20469;-66
2022/07/14 00:55:41;;;;;;;10.57;3.50;;;;;;;17.24;73.65;100754.72;5121858;28;20473;-66
2022/07/14 00:58:09;;;;;;;14.83;4.07;;;;;;;17.36;73.38;100744.41;5121895;28;21046;-67
2022/07/14 01:00:36;;;;;;;12.23;4.50;;;;;;;17.49;73.17;100752.78;5121973;28;20473;-67
2022/07/14 01:03:05;;;;;;;12.63;3.40;;;;;;;17.32;72.85;100753.84;5122692;28;20460;-67
2022/07/14 01:05:31;;;;;;;18.17;3.90;;;;;;;17.18;73.77;100757.25;5121999;28;20900;-66
2022/07/14 01:07:58;;;;;;;11.67;3.50;;;;;;;17.25;73.18;100764.50;5122757;28;20481;-67
2022/07/14 01:10:25;;;;;;;11.87;4.10;;;;;;;17.21;73.95;100767.75;5122204;28;20479;-66
2022/07/14 01:12:52;;;;;;;16.37;3.67;;;;;;;17.41;73.18;100765.47;5121524;28;20829;-65
2022/07/14 01:15:20;;;;;;;17.37;3.63;;;;;;;17.31;73.19;100757.59;5120760;28;20476;-65
2022/07/14 01:17:48;;;;;;;16.13;4.23;;;;;;;16.90;73.94;100755.75;5121717;28;21034;-64
2022/07/14 01:20:15;;;;;;;22.83;4.13;;;;;;;17.02;73.47;100748.16;5121957;28;20459;-64
2022/07/14 01:22:46;;;;;;;16.77;3.50;;;;;;;17.23;72.71;100754.91;5122568;28;20460;-64
2022/07/14 01:25:13;;;;;;;15.50;3.60;;;;;;;16.96;73.31;100754.25;5121722;28;20800;-64
2022/07/14 01:27:40;;;;;;;14.97;3.90;;;;;;;16.81;73.13;100758.63;5121644;28;20472;-64
2022/07/14 01:30:08;;;;;;;12.57;4.03;;;;;;;16.88;73.71;100749.69;5121701;28;20465;-64
2022/07/14 01:32:35;;;;;;;15.27;3.83;;;;;;;17.16;72.87;100762.00;5121106;28;20471;-65
2022/07/14 01:35:01;;;;;;;8.63;3.10;;;;;;;17.30;72.14;100770.22;5121451;28;20553;-64
2022/07/14 01:37:28;;;;;;;18.73;3.80;;;;;;;16.98;73.11;100771.13;5120685;28;20486;-64
2022/07/14 01:39:57;;;;;;;14.40;3.53;;;;;;;17.23;72.20;100755.72;5118256;28;20518;-65
2022/07/14 01:42:23;;;;;;;12.10;2.93;;;;;;;17.02;73.08;100758.13;5120699;28;20478;-65
2022/07/14 01:44:50;;;;;;;14.37;3.73;;;;;;;17.02;73.01;100774.34;5121695;28;20477;-64
2022/07/14 01:47:16;;;;;;;14.60;4.20;;;;;;;17.11;72.35;100767.91;5121027;28;20596;-64
2022/07/14 01:49:43;;;;;;;9.27;3.07;;;;;;;17.07;72.67;100763.88;5122258;28;20447;-64
2022/07/14 01:52:10;;;;;;;17.57;4.73;;;;;;;17.27;72.46;100775.13;5121257;28;20482;-65
2022/07/14 01:54:36;;;;;;;13.50;3.17;;;;;;;17.30;71.87;100770.22;5121503;28;20435;-64
2022/07/14 01:57:06;;;;;;;12.43;3.53;;;;;;;16.98;72.74;100764.88;5120862;28;20473;-65
2022/07/14 01:59:32;;;;;;;18.43;3.40;;;;;;;17.24;71.80;100768.25;5122333;28;20502;-65
2022/07/14 02:01:59;;;;;;;12.70;3.40;;;;;;;17.19;72.23;100775.19;5121278;28;20841;-65
2022/07/14 02:04:26;;;;;;;15.53;3.93;;;;;;;17.31;71.64;100769.22;5122134;28;20479;-66
2022/07/14 02:06:54;;;;;;;11.80;3.50;;;;;;;16.82;72.39;100763.00;5120400;28;20467;-65
2022/07/14 02:09:21;;;;;;;10.10;3.13;;;;;;;16.65;73.34;100772.97;5121390;28;20477;-65
2022/07/14 02:14:35;;;;;;;15.20;3.03;;;;;;;16.43;72.89;100764.50;5121355;28;20433;-65
2022/07/14 02:17:02;;;;;;;17.43;3.80;;;;;;;16.57;73.26;100769.22;5120511;28;20464;-65
2022/07/14 02:19:28;;;;;;;15.23;3.60;;;;;;;16.68;72.52;100769.91;5120932;28;20477;-66
2022/07/14 02:21:56;;;;;;;13.37;3.97;;;;;;;16.36;73.21;100766.16;5119641;28;20482;-65
2022/07/14 02:24:23;;;;;;;20.60;3.27;;;;;;;16.64;72.49;100764.00;5121206;28;20468;-65
2022/07/14 02:26:50;;;;;;;14.03;3.53;;;;;;;16.66;72.10;100771.94;5120631;28;20905;-65
2022/07/14 02:29:17;;;;;;;8.57;2.90;;;;;;;16.81;71.90;100767.56;5121405;28;20446;-66
2022/07/14 02:31:46;;;;;;;12.20;4.17;;;;;;;16.83;71.73;100768.22;5120763;28;20474;-65
2022/07/14 02:34:13;;;;;;;16.00;3.40;;;;;;;16.54;72.03;100766.88;5120862;28;20460;-65
2022/07/14 02:36:40;;;;;;;18.47;3.03;;;;;;;16.28;72.96;100766.97;5115147;28;20493;-65
2022/07/14 02:39:07;;;;;;;15.93;4.10;;;;;;;16.56;72.38;100758.59;5121423;28;20668;-65
2022/07/14 02:41:33;;;;;;;14.07;3.47;;;;;;;16.29;73.12;100757.88;5120211;28;20496;-66
2022/07/14 02:44:00;;;;;;;13.03;3.40;;;;;;;16.38;72.75;100764.13;5120244;27;20450;-66
2022/07/14 02:46:27;;;;;;;15.77;3.57;;;;;;;16.30;72.71;100756.88;5119320;28;20945;-65
2022/07/14 02:48:55;;;;;;;12.30;3.50;;;;;;;16.26;73.29;100765.47;5120772;28;20831;-65
2022/07/14 02:51:21;;;;;;;10.70;3.77;;;;;;;16.33;73.19;100761.09;5120272;28;21003;-64
2022/07/14 02:53:48;;;;;;;13.13;3.83;;;;;;;16.20;73.33;100750.78;5120914;28;20438;-64
2022/07/14 02:56:15;;;;;;;9.50;3.23;;;;;;;16.34;73.40;100749.31;5120494;28;20493;-64
2022/07/14 02:58:41;;;;;;;18.83;3.63;;;;;;;16.37;73.02;100751.69;5120078;28;20505;-64
2022/07/14 03:01:09;;;;;;;13.83;4.03;;;;;;;16.28;73.39;100749.94;5120220;28;20559;-64
2022/07/14 03:03:36;;;;;;;13.10;2.90;;;;;;;16.22;73.12;100739.84;5120894;28;20438;-64
2022/07/14 03:06:10;;;;;;;13.40;2.70;;;;;;;16.31;72.66;100747.75;5119749;28;20949;-64
2022/07/14 03:08:37;;;;;;;8.97;2.60;;;;;;;16.06;73.95;100746.88;5111099;28;20442;-64
2022/07/14 03:11:03;;;;;;;14.00;3.20;;;;;;;16.44;72.65;100754.53;5120096;28;20502;-65
2022/07/14 03:13:30;;;;;;;14.00;3.77;;;;;;;16.35;72.79;100757.22;5120193;28;20489;-64
2022/07/14 03:15:57;;;;;;;11.57;2.43;;;;;;;16.33;72.88;100763.78;5120266;28;20495;-64
2022/07/14 03:18:24;;;;;;;13.40;2.57;;;;;;;16.48;72.29;100764.00;5120403;28;20509;-65
2022/07/14 03:20:51;;;;;;;10.13;2.90;;;;;;;16.33;72.54;100771.88;5119218;28;20531;-65
2022/07/14 03:23:19;;;;;;;16.77;2.43;;;;;;;16.60;71.91;100767.22;5120629;28;20438;-65
2022/07/14 03:25:46;;;;;;;9.87;2.63;;;;;;;16.38;71.65;100766.84;5119709;28;20491;-64
2022/07/14 03:28:13;;;;;;;11.70;2.80;;;;;;;16.41;71.97;100771.06;5119917;28;20446;-64
2022/07/14 03:30:40;;;;;;;12.70;2.90;;;;;;;16.23;72.65;100768.50;5120308;28;20454;-64
2022/07/14 03:33:06;;;;;;;15.03;2.33;;;;;;;15.96;73.31;100770.44;5120152;28;20465;-64
2022/07/14 03:35:33;;;;;;;17.67;3.10;;;;;;;16.19;72.89;100762.59;5119590;28;20477;-64
2022/07/14 03:38:00;;;;;;;12.80;2.57;;;;;;;16.39;72.12;100760.44;5119950;28;20517;-64
2022/07/14 03:40:28;;;;;;;9.50;2.70;;;;;;;16.14;73.12;100757.69;5119966;28;20470;-64
2022/07/14 03:42:54;;;;;;;8.17;2.00;;;;;;;16.62;71.43;100762.50;5103792;28;20451;-64
2022/07/14 03:45:21;;;;;;;10.20;2.77;;;;;;;16.75;70.90;100766.38;5119585;28;20632;-64
2022/07/14 03:47:48;;;;;;;15.70;2.67;;;;;;;16.88;70.34;100762.38;5119052;28;21649;-64
2022/07/14 03:50:14;;;;;;;8.27;2.53;;;;;;;16.93;70.17;100760.00;5119174;28;20442;-64
2022/07/14 03:52:41;;;;;;;9.33;2.60;;;;;;;16.38;71.19;100756.03;5120728;28;20481;-64
2022/07/14 03:55:09;;;;;;;15.03;2.80;;;;;;;16.60;71.36;100753.72;5119914;28;20442;-64
2022/07/14 03:57:37;;;;;;;13.90;3.40;;;;;;;16.57;70.94;100758.44;5123528;28;20480;-64
2022/07/14 04:00:05;;;;;;;12.57;3.03;;;;;;;16.42;71.85;100757.38;5124750;28;20470;-64
2022/07/14 04:02:32;;;;;;;13.97;3.93;;;;;;;16.44;71.91;100757.22;5123546;28;20588;-64
2022/07/14 04:04:59;;;;;;;10.73;2.90;;;;;;;16.45;71.90;100750.84;5123571;28;20442;-63
2022/07/14 04:07:26;;;;;;;8.47;2.90;;;;;;;16.63;70.79;100764.16;5123304;28;20474;-64
2022/07/14 04:09:52;;;;;;;10.23;2.50;;;;;;;16.93;69.98;100760.84;5123973;28;20493;-64
2022/07/14 04:12:19;;;;;;;10.47;3.07;;;;;;;17.10;69.43;100761.66;5122161;28;20516;-64
2022/07/14 04:14:47;;;;;;;17.77;3.40;;;;;;;17.20;69.07;100766.88;5122720;28;20439;-69
2022/07/14 04:17:15;;;;;;;10.13;3.13;;;;;;;17.21;69.53;100763.16;5120595;28;20531;-69
2022/07/14 04:19:41;;;;;;;10.60;3.27;;;;;;;16.74;69.57;100766.56;5123319;28;20502;-69
2022/07/14 04:22:08;;;;;;;13.30;2.80;;;;;;;16.41;70.94;100762.97;5122672;28;20497;-69
2022/07/14 04:24:35;;;;;;;13.10;3.13;;;;;;;16.40;71.27;100767.50;5123852;28;20915;-69
2022/07/14 04:27:01;;;;;;;17.23;2.93;;;;;;;16.50;70.84;100765.50;5122272;28;20558;-68
2022/07/14 04:29:28;;;;;;;10.30;3.30;;;;;;;16.83;70.48;100770.09;5123574;28;20461;-68
2022/07/14 04:31:56;;;;;;;10.43;2.87;;;;;;;17.00;68.88;100771.81;5122723;28;20563;-69
2022/07/14 04:34:23;;;;;;;9.37;2.60;;;;;;;17.06;69.03;100764.88;5119946;28;20458;-70
2022/07/14 04:36:49;;;;;;;8.33;2.60;;;;;;;17.20;68.46;100768.75;5122208;28;20486;-68
2022/07/14 04:39:16;;;;;;;16.67;3.80;;;;;;;17.24;67.78;100767.41;5121974;28;20515;-69
2022/07/14 04:41:43;;;;;;;8.60;3.60;;;;;;;17.41;67.06;100771.75;5122133;28;20487;-68
2022/07/14 04:44:09;;;;;;;13.30;3.37;;;;;;;17.21;67.18;100770.44;5121238;28;20476;-66
2022/07/14 04:46:36;;;;;;;9.37;2.30;;;;;;;17.42;66.75;100765.31;5119061;28;21044;-68
2022/07/14 04:52:04;;;;;;;14.37;2.87;;;;;;;17.60;66.48;100762.41;5121775;28;20579;-68
2022/07/14 04:54:31;;;;;;;13.10;3.17;;;;;;;17.63;66.22;100750.38;5123070;28;20435;-68
2022/07/14 04:56:57;;;;;;;7.50;2.63;;;;;;;17.55;65.80;100762.09;5121642;28;20472;-70
2022/07/14 04:59:24;;;;;;;7.20;2.90;;;;;;;17.21;66.48;100759.63;5121739;28;20493;-68
2022/07/14 05:01:51;;;;;;;9.23;3.07;;;;;;;17.61;66.39;100758.66;5122491;28;20478;-68
2022/07/14 05:04:19;;;;;;;11.17;3.30;;;;;;;17.76;65.61;100753.38;5122238;28;20442;-68
2022/07/14 05:06:46;;;;;;;11.77;3.70;;;;;;;18.50;63.52;100741.31;5121434;28;20474;-68
2022/07/14 05:09:14;;;;;;;10.73;4.00;;;;;;;18.91;61.47;100739.16;5121574;28;20998;-68
2022/07/14 05:11:41;;;;;;;18.03;3.60;;;;;;;18.78;61.09;100739.75;5122044;28;20501;-68
2022/07/14 05:14:08;;;;;;;7.90;2.50;;;;;;;19.04;60.68;100743.09;5120004;28;20485;-68
2022/07/14 05:16:35;;;;;;;7.43;2.60;;;;;;;19.46;58.39;100747.94;5121328;28;20466;-68
2022/07/14 05:19:02;;;;;;;8.10;2.50;;;;;;;20.43;55.18;100743.25;5120637;28;20482;-69
2022/07/14 05:21:30;;;;;;;9.80;2.50;;;;;;;20.90;54.77;100739.16;5119823;28;20470;-69
2022/07/14 05:23:57;;;;;;;8.83;2.70;;;;;;;22.51;49.02;100736.19;5122167;28;20470;-69
2022/07/14 05:26:24;;;;;;;9.23;2.90;;;;;;;22.73;47.80;100731.41;5121537;28;20481;-69
2022/07/14 05:28:51;;;;;;;11.23;3.27;;;;;;;20.65;52.74;100736.00;5121470;28;20461;-69
2022/07/14 05:31:17;;;;;;;19.13;4.70;;;;;;;23.04;46.81;100740.00;5121264;28;20470;-69
2022/07/14 05:33:44;;;;;;;11.67;3.30;;;;;;;22.72;46.52;100737.06;5121956;28;20462;-69
2022/07/14 05:36:11;;;;;;;12.43;3.70;;;;;;;22.68;47.47;100735.81;5121534;28;20494;-69
2022/07/14 05:38:39;;;;;;;6.90;3.37;;;;;;;24.85;41.63;100737.38;5121465;28;20516;-69
2022/07/14 05:41:06;;;;;;;10.37;3.40;;;;;;;26.37;39.00;100731.28;5121569;28;20968;-69
2022/07/14 05:43:33;;;;;;;10.90;2.53;;;;;;;27.43;36.33;100736.91;5121515;28;20971;-69
2022/07/14 05:46:04;;;;;;;7.40;2.93;;;;;;;25.17;40.96;100733.53;5120723;28;20852;-69
2022/07/14 05:48:31;;;;;;;12.00;3.73;;;;;;;25.77;39.58;100736.69;5121662;28;20446;-69
2022/07/14 05:51:04;;;;;;;8.83;2.77;;;;;;;25.20;40.74;100734.94;5121373;28;20860;-69
2022/07/14 05:53:30;;;;;;;10.47;2.60;;;;;;;26.95;36.77;100723.41;5122467;28;20422;-69
2022/07/14 05:55:59;;;;;;;7.17;3.03;;;;;;;23.68;43.26;100736.53;5121449;28;20480;-69
2022/07/14 05:58:25;;;;;;;7.23;2.70;;;;;;;26.25;38.20;100733.97;5121728;28;20446;-69
2022/07/14 06:00:52;;;;;;;11.40;3.70;;;;;;;25.03;40.23;100733.84;5120302;28;21009;-69
2022/07/14 06:03:19;;;;;;;7.00;3.00;;;;;;;26.91;36.92;100725.81;5119417;28;20496;-69
2022/07/14 06:05:46;;;;;;;7.33;3.37;;;;;;;28.06;34.60;100728.06;5120040;28;20462;-69
2022/07/14 06:08:13;;;;;;;7.87;3.10;;;;;;;26.70;37.32;100731.84;5121056;28;20851;-69
2022/07/14 06:10:40;;;;;;;6.87;2.93;;;;;;;23.99;42.38;100732.25;5119809;28;20473;-69
2022/07/14 06:13:08;;;;;;;9.03;2.93;;;;;;;25.66;39.20;100724.63;5120564;28;20438;-69
2022/07/14 06:15:35;;;;;;;10.20;2.83;;;;;;;27.94;35.78;100723.44;5120668;28;20466;-69
2022/07/14 06:18:01;;;;;;;7.70;2.80;;;;;;;28.20;34.54;100725.84;5120272;28;20449;-70
2022/07/14 06:20:28;;;;;;;4.40;2.60;;;;;;;28.77;32.97;100722.19;5118935;28;20469;-69
2022/07/14 06:22:55;;;;;;;7.77;2.67;;;;;;;29.04;32.77;100727.84;5120998;28;20446;-68
2022/07/14 06:25:22;;;;;;;8.23;2.70;;;;;;;28.91;33.12;100732.59;5119590;28;20431;-69
2022/07/14 06:27:48;;;;;;;10.57;3.00;;;;;;;27.20;35.25;100728.66;5120426;28;20457;-69
2022/07/14 06:30:16;;;;;;;5.63;2.23;;;;;;;29.16;32.35;100730.53;5119970;28;20460;-68
2022/07/14 06:32:43;;;;;;;6.60;2.70;;;;;;;27.55;35.21;100730.53;5120245;28;20454;-68
2022/07/14 06:35:11;;;;;;;7.57;2.20;;;;;;;25.26;38.66;100745.03;5119546;28;20459;-68
2022/07/14 06:37:37;;;;;;;7.60;2.80;;;;;;;26.05;37.86;100736.97;5120219;28;20504;-68
2022/07/14 06:40:05;;;;;;;7.20;2.37;;;;;;;27.63;34.83;100735.69;5119904;28;20477;-68
2022/07/14 06:42:32;;;;;;;5.90;2.13;;;;;;;28.53;33.19;100733.31;5119380;28;20458;-68
2022/07/14 06:44:59;;;;;;;10.37;2.97;;;;;;;28.48;33.66;100734.06;5120661;28;20444;-68
2022/07/14 06:47:29;;;;;;;5.60;2.80;;;;;;;29.53;31.70;100739.06;5118537;28;20473;-68
2022/07/14 06:49:56;;;;;;;8.50;2.70;;;;;;;27.80;34.00;100730.25;5120538;28;20584;-68
2022/07/14 06:52:23;;;;;;;11.30;2.43;;;;;;;25.26;38.68;100736.84;5119510;28;20473;-68
2022/07/14 06:54:50;;;;;;;6.20;2.47;;;;;;;25.35;38.79;100748.31;5119915;28;20878;-68
2022/07/14 06:57:17;;;;;;;5.87;2.00;;;;;;;27.07;35.90;100745.38;5119454;28;20484;-68
2022/07/14 06:59:44;;;;;;;5.50;2.53;;;;;;;25.84;37.45;100742.91;5120404;28;20497;-68
2022/07/14 07:02:11;;;;;;;6.93;1.47;;;;;;;25.36;38.38;100741.75;5118580;28;20470;-68
2022/07/14 07:04:39;;;;;;;6.60;1.77;;;;;;;27.73;34.74;100737.81;5120128;28;20438;-68
2022/07/14 07:07:04;;;;;;;4.83;1.83;;;;;;;27.94;32.66;100736.34;5119744;28;21047;-68
2022/07/14 07:09:31;;;;;;;7.43;2.23;;;;;;;29.26;31.28;100738.94;5120496;28;20450;-68
2022/07/14 07:11:58;;;;;;;6.97;2.17;;;;;;;28.10;33.36;100735.56;5119145;28;20261;-68
2022/07/14 07:14:24;;;;;;;3.67;1.43;;;;;;;29.26;31.66;100726.00;5118399;28;20454;-68
2022/07/14 07:16:51;;;;;;;10.80;2.20;;;;;;;26.21;36.09;100720.94;5118234;28;20492;-68
2022/07/14 07:19:18;;;;;;;3.37;1.70;;;;;;;28.35;32.81;100723.38;5119040;28;20498;-68
2022/07/14 07:21:46;;;;;;;5.77;1.87;;;;;;;28.44;33.09;100724.63;5118881;28;20505;-68
2022/07/14 07:24:13;;;;;;;7.73;1.97;;;;;;;28.80;30.78;100728.03;5120676;28;20832;-68
2022/07/14 07:26:41;;;;;;;8.97;2.60;;;;;;;27.39;34.29;100730.25;5120379;28;20469;-68
2022/07/14 07:29:08;;;;;;;6.07;2.10;;;;;;;30.06;30.06;100735.84;5119946;28;20446;-68
2022/07/14 07:31:35;;;;;;;4.43;1.53;;;;;;;30.01;28.98;100736.63;5122026;28;20473;-68
2022/07/14 07:34:02;;;;;;;5.33;2.13;;;;;;;29.92;29.66;100740.94;5124688;28;20456;-68
2022/07/14 07:36:29;;;;;;;4.80;1.93;;;;;;;28.58;31.33;100730.69;5123901;28;20473;-68
2022/07/14 07:38:57;;;;;;;8.10;2.10;;;;;;;28.00;33.06;100735.34;5124952;28;20471;-68
2022/07/14 07:41:24;;;;;;;9.83;2.37;;;;;;;27.21;33.57;100722.91;5123731;28;20503;-68
2022/07/14 07:43:51;;;;;;;5.10;1.73;;;;;;;27.83;32.98;100726.19;5123733;28;20449;-68
2022/07/14 07:46:17;;;;;;;6.30;1.97;;;;;;;29.82;29.11;100728.69;5123085;28;20491;-68
2022/07/14 07:48:44;;;;;;;7.23;1.97;;;;;;;29.31;29.57;100730.75;5124062;28;20485;-68
2022/07/14 07:51:11;;;;;;;9.40;2.00;;;;;;;28.74;30.01;100726.28;5123931;28;20494;-68
2022/07/14 07:53:38;;;;;;;6.13;1.80;;;;;;;29.53;28.49;100724.41;5124431;28;20438;-68
2022/07/14 07:56:07;;;;;;;5.00;1.33;;;;;;;28.64;30.29;100717.84;5123769;28;20466;-68
2022/07/14 07:58:33;;;;;;;8.07;1.73;;;;;;;29.24;29.14;100725.41;5123583;28;21023;-68
2022/07/14 08:01:00;;;;;;;6.93;1.67;;;;;;;27.08;32.76;100716.84;5123362;28;20473;-68
2022/07/14 08:03:27;;;;;;;4.70;1.97;;;;;;;28.64;30.46;100715.91;5124467;28;20458;-68
2022/07/14 08:05:54;;;;;;;4.73;1.83;;;;;;;29.48;28.25;100716.94;5123615;28;20483;-68
2022/07/14 08:08:20;;;;;;;5.43;1.30;;;;;;;24.82;36.31;100716.78;5123984;28;20457;-68
2022/07/14 08:10:47;;;;;;;7.77;1.90;;;;;;;25.15;35.13;100711.03;5103173;28;20497;-68
2022/07/14 08:13:15;;;;;;;6.50;2.03;;;;;;;25.52;35.35;100708.34;5109573;28;20442;-67
2022/07/14 08:15:42;;;;;;;7.77;2.40;;;;;;;28.80;30.08;100699.66;5121475;28;20526;-68
2022/07/14 08:18:10;;;;;;;6.93;1.97;;;;;;;30.48;27.09;100693.81;5122893;28;20461;-68
2022/07/14 08:20:37;;;;;;;3.90;1.40;;;;;;;30.76;26.92;100685.22;5122401;28;21172;-67
2022/07/14 08:23:04;;;;;;;5.40;1.20;;;;;;;29.30;28.26;100685.00;5122490;28;21035;-67
2022/07/14 08:25:32;;;;;;;7.43;1.60;;;;;;;28.92;28.66;100682.00;5122918;28;20462;-67
2022/07/14 08:28:01;;;;;;;3.97;1.57;;;;;;;27.33;31.71;100670.78;5122625;28;20450;-67
2022/07/14 08:30:29;;;;;;;5.23;1.33;;;;;;;27.61;31.01;100669.16;5121366;28;20458;-67
2022/07/14 08:32:56;;;;;;;5.17;1.37;;;;;;;28.83;29.57;100664.22;5123114;28;20735;-67
2022/07/14 08:35:25;;;;;;;3.50;1.40;;;;;;;31.09;26.33;100661.16;5122362;28;20457;-67
2022/07/14 08:37:52;;;;;;;5.50;1.57;;;;;;;30.84;26.30;100659.03;5121956;28;20470;-67
2022/07/14 08:40:21;;;;;;;5.10;1.60;;;;;;;28.07;29.88;100656.34;5121759;28;20496;-67
2022/07/14 08:42:49;;;;;;;2.77;1.00;;;;;;;29.34;28.24;100664.16;5121174;28;20457;-67
2022/07/14 08:45:17;;;;;;;4.13;1.30;;;;;;;29.80;27.93;100661.97;5121504;28;20492;-66
2022/07/14 08:47:46;;;;;;;5.40;1.47;;;;;;;31.19;26.28;100656.78;5121719;28;20468;-67
2022/07/14 08:50:14;;;;;;;5.50;1.70;;;;;;;29.80;27.04;100666.66;5122771;28;20438;-67
2022/07/14 08:52:41;;;;;;;3.50;1.40;;;;;;;27.79;30.74;100660.75;5122278;28;20454;-66
2022/07/14 08:55:10;;;;;;;4.53;1.17;;;;;;;29.87;27.15;100660.94;5122328;28;20430;-66
2022/07/14 08:57:38;;;;;;;5.47;1.13;;;;;;;30.66;26.52;100665.81;5121432;28;20947;-66
2022/07/14 09:00:08;;;;;;;5.43;1.53;;;;;;;30.36;26.06;100664.50;5122198;28;20502;-66
2022/07/14 09:02:34;;;;;;;5.23;1.50;;;;;;;29.91;28.18;100653.81;5121935;28;20454;-67
2022/07/14 09:05:03;;;;;;;5.13;1.60;;;;;;;27.83;30.20;100663.84;5122739;28;20456;-67
2022/07/14 09:07:31;;;;;;;4.67;1.30;;;;;;;26.83;32.21;100663.03;5121026;28;20462;-68
2022/07/14 09:10:03;;;;;;;2.97;1.00;;;;;;;29.70;28.03;100655.47;5122087;28;20884;-67
2022/07/14 09:12:30;;;;;;;5.70;1.40;;;;;;;29.58;28.67;100658.38;5120807;28;20476;-67
2022/07/14 09:17:51;;;;;;;5.47;1.33;;;;;;;30.45;25.70;100655.72;5105228;28;20478;-66
2022/07/14 09:20:19;;;;;;;5.40;1.50;;;;;;;29.98;26.98;100658.03;5121859;28;20510;-67
2022/07/14 09:22:46;;;;;;;4.73;1.27;;;;;;;30.37;25.73;100657.03;5121018;28;20450;-66
2022/07/14 09:25:15;;;;;;;2.63;0.93;;;;;;;29.17;27.82;100660.63;5121497;28;20422;-67
2022/07/14 09:27:44;;;;;;;3.40;1.17;;;;;;;28.50;28.93;100654.03;5121243;28;20453;-67
2022/07/14 09:30:11;;;;;;;5.63;1.30;;;;;;;28.58;28.56;100650.91;5120903;28;20499;-67
2022/07/14 09:32:49;;;;;;;3.23;1.30;;;;;;;28.38;28.88;100656.88;5122206;28;20476;-67
2022/07/14 09:35:20;;;;;;;3.83;0.90;;;;;;;27.65;30.55;100653.03;5121133;28;20517;-67
2022/07/14 09:37:47;;;;;;;5.73;1.43;;;;;;;28.04;30.27;100654.09;5120661;28;20481;-67
2022/07/14 09:40:20;;;;;;;2.57;1.23;;;;;;;29.46;28.84;100659.34;5121088;28;20501;-67
2022/07/14 09:42:52;;;;;;;5.83;1.60;;;;;;;29.76;26.53;100665.50;5120969;28;20533;-67
2022/07/14 09:45:20;;;;;;;3.40;0.70;;;;;;;27.33;29.30;100654.31;5120564;28;20875;-67
2022/07/14 09:47:56;;;;;;;3.20;0.90;;;;;;;29.56;27.89;100658.63;5120754;28;20427;-67
2022/07/14 09:50:39;;;;;;;6.60;1.20;;;;;;;28.95;27.37;100655.03;5120852;28;20478;-67
2022/07/14 09:53:16;;;;;;;3.17;1.17;;;;;;;30.42;25.58;100646.03;5120984;28;20450;-67
2022/07/14 09:55:46;;;;;;;4.47;1.00;;;;;;;31.00;25.28;100657.22;5120694;28;20474;-67
2022/07/14 09:58:13;;;;;;;5.40;1.03;;;;;;;31.26;25.11;100652.66;5120491;28;20476;-67
2022/07/14 10:00:41;;;;;;;3.40;1.37;;;;;;;30.37;24.90;100646.81;5121143;28;20504;-67
2022/07/14 10:03:08;;;;;;;4.63;1.27;;;;;;;29.13;27.20;100646.50;5121368;28;20450;-67
2022/07/14 10:05:38;;;;;;;3.83;1.20;;;;;;;29.94;25.79;100639.50;5119864;28;20461;-68
2022/07/14 10:08:06;;;;;;;5.03;1.33;;;;;;;29.44;26.61;100641.41;5121297;28;20529;-66
2022/07/14 10:10:34;;;;;;;4.20;1.13;;;;;;;30.12;26.01;100633.63;5120760;28;20496;-67
2022/07/14 10:13:03;;;;;;;5.17;1.23;;;;;;;30.59;25.04;100630.16;5119478;28;20457;-66
2022/07/14 10:15:30;;;;;;;4.07;1.10;;;;;;;27.59;28.71;100627.38;5120762;28;20466;-66
2022/07/14 10:17:58;;;;;;;5.63;1.37;;;;;;;30.18;26.11;100623.47;5120629;28;20430;-66
2022/07/14 10:20:24;;;;;;;5.47;1.23;;;;;;;28.68;28.32;100631.81;5118936;28;20477;-66
2022/07/14 10:22:55;;;;;;;5.63;1.70;;;;;;;29.37;27.88;100635.25;5120593;28;20964;-66
2022/07/14 10:25:22;;;;;;;7.23;1.30;;;;;;;31.15;24.28;100634.41;5120644;28;20499;-66
2022/07/14 10:27:49;;;;;;;5.33;1.50;;;;;;;30.31;25.28;100634.06;5119339;28;20460;-66
2022/07/14 10:30:16;;;;;;;2.80;0.93;;;;;;;31.07;24.67;100621.09;5120083;28;20464;-67
2022/07/14 10:32:48;;;;;;;4.40;1.47;;;;;;;31.24;23.74;100634.72;5120744;28;20466;-67
2022/07/14 10:35:25;;;;;;;3.80;0.80;;;;;;;31.37;23.68;100627.84;5119304;28;20518;-67
2022/07/14 10:38:08;;;;;;;2.97;1.13;;;;;;;29.82;26.69;100620.34;5120109;28;20481;-66
2022/07/14 10:40:39;;;;;;;5.20;1.57;;;;;;;30.37;25.64;100618.41;5119688;28;20466;-67
2022/07/14 10:43:08;;;;;;;3.17;1.00;;;;;;;31.31;25.10;100627.00;5119227;28;20443;-66
2022/07/14 10:45:35;;;;;;;3.63;1.03;;;;;;;31.51;23.99;100620.78;5119636;28;20470;-67
2022/07/14 10:48:02;;;;;;;5.00;1.33;;;;;;;30.41;24.79;100606.59;5120282;28;20483;-67
2022/07/14 10:50:29;;;;;;;4.03;1.33;;;;;;;26.63;29.94;100617.63;5118414;28;20470;-67
2022/07/14 10:53:05;;;;;;;4.77;1.10;;;;;;;25.88;30.61;100613.50;5118808;28;20542;-67
2022/07/14 10:55:37;;;;;;;4.60;1.20;;;;;;;27.75;28.32;100617.53;5119625;28;20485;-67
2022/07/14 10:58:26;;;;;;;3.40;0.97;;;;;;;27.68;28.01;100614.91;5119095;28;20450;-67
2022/07/14 11:00:58;;;;;;;6.07;1.40;;;;;;;27.20;29.88;100610.63;5119224;28;20514;-66
2022/07/14 11:03:26;;;;;;;4.80;1.20;;;;;;;27.02;30.72;100614.38;5119986;28;20446;-67
2022/07/14 11:06:13;;;;;;;4.17;0.97;;;;;;;27.66;28.11;100606.09;5121495;28;20495;-67
2022/07/14 11:08:42;;;;;;;2.60;1.10;;;;;;;28.74;26.92;100611.53;5127128;28;20450;-67
2022/07/14 11:11:17;;;;;;;6.60;0.87;;;;;;;29.13;27.16;100612.59;5124958;28;20588;-67
2022/07/14 11:14:07;;;;;;;3.43;1.37;;;;;;;26.17;29.33;100610.97;5124877;28;20450;-66
2022/07/14 11:16:58;;;;;;;3.50;1.00;;;;;;;28.49;27.38;100611.13;5125634;28;20477;-67
2022/07/14 11:19:30;;;;;;;2.30;0.83;;;;;;;27.71;27.15;100608.94;5125978;28;20703;-67
2022/07/14 11:22:13;;;;;;;2.97;0.93;;;;;;;29.49;25.08;100613.91;5120085;28;20988;-67
2022/07/14 11:24:49;;;;;;;3.60;1.10;;;;;;;29.41;25.81;100619.91;5126718;28;21220;-67
2022/07/14 11:27:32;;;;;;;2.73;1.03;;;;;;;29.85;25.41;100611.56;5124287;28;20924;-67
2022/07/14 11:30:17;;;;;;;4.13;1.00;;;;;;;29.60;24.90;100618.47;5126640;28;20450;-67
2022/07/14 11:32:44;;;;;;;5.23;0.77;;;;;;;29.10;25.98;100619.47;5126505;28;20485;-67
2022/07/14 11:38:00;;;;;;;3.93;1.23;;;;;;;29.55;25.69;100606.56;5126151;28;20559;-67